Time,TemperatureF,DewpointF,PressureIn,WindDirection,WindDirectionDegrees,WindSpeedMPH,WindSpeedGustMPH,Humidity,HourlyPrecipIn,Conditions,Clouds,dailyrainin,SolarRadiationWatts/m^2,SoftwareType,DateUTC
2013-03-17 00:04:00,54.5,51.0,29.95,South,175,1.0,1.0,88,0.00,,,0.00,0,Wunderground v.1.15,2013-03-17 07:04:00,
2013-03-17 00:09:00,54.4,50.9,29.95,SSW,194,1.0,3.0,88,0.00,,,0.00,0,Wunderground v.1.15,2013-03-17 07:09:00,
2013-03-17 00:15:00,54.2,50.7,29.95,WSW,253,1.0,2.0,88,0.00,,,0.00,0,Wunderground v.1.15,2013-03-17 07:15:00,
2013-03-17 00:20:00,54.3,50.8,29.95,West,273,2.0,3.0,88,0.00,,,0.00,0,Wunderground v.1.15,2013-03-17 07:20:00,
2013-03-17 00:26:00,54.3,50.8,29.95,West,281,2.0,3.0,88,0.00,,,0.00,0,Wunderground v.1.15,2013-03-17 07:26:00,
2013-03-17 00:32:00,54.2,50.7,29.96,SW,219,1.0,2.0,88,0.00,,,0.00,0,Wunderground v.1.15,2013-03-17 07:32:00,
2013-03-17 00:37:00,54.3,50.8,29.95,SSE,154,2.0,2.0,88,0.00,,,0.00,0,Wunderground v.1.15,2013-03-17 07:37:00,
2013-03-17 00:42:00,54.3,50.8,29.95,SSW,209,2.0,2.0,88,0.00,,,0.00,0,Wunderground v.1.15,2013-03-17 07:42:00,
2013-03-17 00:48:00,54.2,50.7,29.95,WSW,248,2.0,4.0,88,0.00,,,0.00,0,Wunderground v.1.15,2013-03-17 07:48:00,
2013-03-17 00:54:00,54.1,50.6,29.96,West,277,2.0,2.0,88,0.00,,,0.00,0,Wunderground v.1.15,2013-03-17 07:54:00,
2013-03-17 00:59:00,54.1,50.9,29.96,SW,223,1.0,2.0,89,0.00,,,0.00,0,Wunderground v.1.15,2013-03-17 07:59:00,
2013-03-17 01:05:00,54.0,50.5,29.96,West,271,2.0,3.0,88,0.00,,,0.00,0,Wunderground v.1.15,2013-03-17 08:05:00,
2013-03-17 01:10:00,53.9,50.7,29.96,WSW,244,2.0,3.0,89,0.00,,,0.00,0,Wunderground v.1.15,2013-03-17 08:10:00,
2013-03-17 01:16:00,53.7,50.5,29.96,WNW,284,3.0,4.0,89,0.00,,,0.00,0,Wunderground v.1.15,2013-03-17 08:16:00,
2013-03-17 01:21:00,53.6,50.4,29.97,NW,309,3.0,3.0,89,0.00,,,0.00,0,Wunderground v.1.15,2013-03-17 08:21:00,
2013-03-17 01:27:00,53.6,50.7,29.97,SW,234,3.0,5.0,90,0.00,,,0.00,0,Wunderground v.1.15,2013-03-17 08:27:00,
2013-03-17 01:32:00,53.7,50.5,29.96,SW,232,2.0,3.0,89,0.00,,,0.00,0,Wunderground v.1.15,2013-03-17 08:32:00,
2013-03-17 01:38:00,53.9,50.7,29.97,South,173,2.0,3.0,89,0.00,,,0.00,0,Wunderground v.1.15,2013-03-17 08:38:00,
2013-03-17 01:43:00,54.0,50.8,29.96,West,265,2.0,6.0,89,0.00,,,0.00,0,Wunderground v.1.15,2013-03-17 08:43:00,
2013-03-17 01:49:00,53.9,50.7,29.96,SSW,207,2.0,6.0,89,0.00,,,0.00,0,Wunderground v.1.15,2013-03-17 08:49:00,
2013-03-17 01:55:00,54.0,50.8,29.97,WSW,245,1.0,2.0,89,0.00,,,0.00,0,Wunderground v.1.15,2013-03-17 08:55:00,
2013-03-17 02:01:00,53.8,50.6,29.97,West,281,1.0,3.0,89,0.00,,,0.00,0,Wunderground v.1.15,2013-03-17 09:01:00,
2013-03-17 02:06:00,53.7,50.5,29.97,WNW,283,2.0,4.0,89,0.00,,,0.00,0,Wunderground v.1.15,2013-03-17 09:06:00,
2013-03-17 02:11:00,53.9,50.7,29.97,WSW,240,2.0,2.0,89,0.00,,,0.00,0,Wunderground v.1.15,2013-03-17 09:11:00,
2013-03-17 02:16:00,54.0,50.8,29.97,SW,217,2.0,3.0,89,0.00,,,0.00,0,Wunderground v.1.15,2013-03-17 09:16:00,
2013-03-17 02:22:00,53.9,50.7,29.97,SW,225,2.0,3.0,89,0.00,,,0.00,0,Wunderground v.1.15,2013-03-17 09:22:00,
2013-03-17 02:27:00,53.9,50.4,29.97,South,175,3.0,3.0,88,0.00,,,0.00,0,Wunderground v.1.15,2013-03-17 09:27:00,
2013-03-17 02:33:00,53.7,50.2,29.97,SSW,202,2.0,3.0,88,0.00,,,0.00,0,Wunderground v.1.15,2013-03-17 09:33:00,
2013-03-17 02:38:00,53.8,50.6,29.97,SW,222,1.0,3.0,89,0.00,,,0.00,0,Wunderground v.1.15,2013-03-17 09:38:00,
2013-03-17 02:44:00,53.8,50.6,29.98,WSW,250,2.0,5.0,89,0.00,,,0.00,0,Wunderground v.1.15,2013-03-17 09:44:00,
2013-03-17 02:49:00,53.7,50.5,29.97,SW,236,1.0,5.0,89,0.00,,,0.00,0,Wunderground v.1.15,2013-03-17 09:49:00,
2013-03-17 02:55:00,53.5,50.3,29.97,NW,310,1.0,3.0,89,0.00,,,0.00,0,Wunderground v.1.15,2013-03-17 09:55:00,
2013-03-17 03:00:00,53.4,50.2,29.98,North,350,1.0,3.0,89,0.00,,,0.00,0,Wunderground v.1.15,2013-03-17 10:00:00,
2013-03-17 03:05:00,53.3,50.1,29.97,NNW,337,1.0,3.0,89,0.00,,,0.00,0,Wunderground v.1.15,2013-03-17 10:05:00,
2013-03-17 03:12:00,53.3,50.1,29.97,NNW,342,1.0,1.0,89,0.00,,,0.00,0,Wunderground v.1.15,2013-03-17 10:12:00,
2013-03-17 03:17:00,53.3,50.4,29.97,NNW,342,0.0,1.0,90,0.00,,,0.00,0,Wunderground v.1.15,2013-03-17 10:17:00,
2013-03-17 03:22:00,53.5,50.3,29.96,SE,124,1.0,2.0,89,0.00,,,0.00,0,Wunderground v.1.15,2013-03-17 10:22:00,
2013-03-17 03:28:00,53.6,50.4,29.96,East,91,0.0,2.0,89,0.00,,,0.00,0,Wunderground v.1.15,2013-03-17 10:28:00,
2013-03-17 03:33:00,53.5,50.3,29.96,ENE,63,0.0,3.0,89,0.00,,,0.00,0,Wunderground v.1.15,2013-03-17 10:33:00,
2013-03-17 03:39:00,53.5,50.3,29.95,ENE,63,0.0,3.0,89,0.00,,,0.00,0,Wunderground v.1.15,2013-03-17 10:39:00,
2013-03-17 03:45:00,53.4,50.2,29.95,North,360,0.0,4.0,89,0.00,,,0.00,0,Wunderground v.1.15,2013-03-17 10:45:00,
2013-03-17 03:50:00,53.4,50.2,29.95,North,9,1.0,4.0,89,0.00,,,0.00,0,Wunderground v.1.15,2013-03-17 10:50:00,
2013-03-17 03:56:00,53.4,50.2,29.95,North,9,1.0,1.0,89,0.00,,,0.00,0,Wunderground v.1.15,2013-03-17 10:56:00,
2013-03-17 04:01:00,53.4,50.2,29.95,North,9,1.0,1.0,89,0.00,,,0.00,0,Wunderground v.1.15,2013-03-17 11:01:00,
2013-03-17 04:07:00,53.6,50.4,29.94,North,9,0.0,1.0,89,0.00,,,0.00,0,Wunderground v.1.15,2013-03-17 11:07:00,
2013-03-17 04:13:00,53.5,50.3,29.94,North,9,0.0,0.0,89,0.00,,,0.00,0,Wunderground v.1.15,2013-03-17 11:13:00,
2013-03-17 04:18:00,53.6,50.4,29.95,North,9,0.0,1.0,89,0.00,,,0.00,0,Wunderground v.1.15,2013-03-17 11:18:00,
2013-03-17 04:23:00,53.6,50.4,29.94,NNW,341,1.0,1.0,89,0.00,,,0.00,0,Wunderground v.1.15,2013-03-17 11:23:00,
2013-03-17 04:29:00,53.6,50.4,29.95,NW,320,1.0,2.0,89,0.00,,,0.00,0,Wunderground v.1.15,2013-03-17 11:29:00,
2013-03-17 04:34:00,53.7,50.5,29.94,WSW,239,1.0,2.0,89,0.00,,,0.00,0,Wunderground v.1.15,2013-03-17 11:34:00,
2013-03-17 04:40:00,53.9,50.7,29.94,WSW,239,0.0,2.0,89,0.00,,,0.00,0,Wunderground v.1.15,2013-03-17 11:40:00,
2013-03-17 04:45:00,53.9,50.4,29.94,WSW,239,0.0,3.0,88,0.00,,,0.00,0,Wunderground v.1.15,2013-03-17 11:45:00,
2013-03-17 04:51:00,54.0,50.5,29.95,WSW,239,0.0,0.0,88,0.00,,,0.00,0,Wunderground v.1.15,2013-03-17 11:51:00,
2013-03-17 04:57:00,53.9,50.4,29.95,West,273,0.0,1.0,88,0.00,,,0.00,0,Wunderground v.1.15,2013-03-17 11:57:00,
2013-03-17 05:02:00,53.8,50.3,29.95,West,273,1.0,1.0,88,0.00,,,0.00,0,Wunderground v.1.15,2013-03-17 12:02:00,
2013-03-17 05:07:00,53.8,50.6,29.95,West,273,0.0,1.0,89,0.00,,,0.00,0,Wunderground v.1.15,2013-03-17 12:07:00,
2013-03-17 05:13:00,53.9,50.7,29.95,WSW,252,1.0,2.0,89,0.00,,,0.00,0,Wunderground v.1.15,2013-03-17 12:13:00,
2013-03-17 05:19:00,53.9,50.4,29.96,WSW,252,1.0,2.0,88,0.00,,,0.00,0,Wunderground v.1.15,2013-03-17 12:19:00,
2013-03-17 05:25:00,53.9,50.4,29.96,WSW,252,0.0,2.0,88,0.00,,,0.00,0,Wunderground v.1.15,2013-03-17 12:25:00,
2013-03-17 05:30:00,54.1,50.6,29.95,WSW,252,0.0,2.0,88,0.00,,,0.00,0,Wunderground v.1.15,2013-03-17 12:30:00,
2013-03-17 05:36:00,54.1,50.6,29.96,WSW,252,0.0,0.0,88,0.00,,,0.00,0,Wunderground v.1.15,2013-03-17 12:36:00,
2013-03-17 05:41:00,54.0,50.5,29.95,WSW,252,1.0,1.0,88,0.00,,,0.00,0,Wunderground v.1.15,2013-03-17 12:41:00,
2013-03-17 05:47:00,54.0,50.5,29.96,SSW,193,1.0,1.0,88,0.00,,,0.00,0,Wunderground v.1.15,2013-03-17 12:47:00,
2013-03-17 05:52:00,54.0,50.5,29.96,West,269,1.0,1.0,88,0.00,,,0.00,0,Wunderground v.1.15,2013-03-17 12:52:00,
2013-03-17 05:57:00,54.1,50.6,29.96,SSW,194,1.0,2.0,88,0.00,,,0.00,0,Wunderground v.1.15,2013-03-17 12:57:00,
2013-03-17 06:02:00,53.9,50.1,29.97,SE,138,1.0,3.0,87,0.00,,,0.00,0,Wunderground v.1.15,2013-03-17 13:02:00,
2013-03-17 06:08:00,53.8,50.3,29.97,SSE,164,2.0,3.0,88,0.00,,,0.00,0,Wunderground v.1.15,2013-03-17 13:08:00,
2013-03-17 06:13:00,53.7,50.2,29.97,SE,126,1.0,3.0,88,0.00,,,0.00,0,Wunderground v.1.15,2013-03-17 13:13:00,
2013-03-17 06:19:00,53.6,50.1,29.97,SE,141,2.0,3.0,88,0.00,,,0.00,0,Wunderground v.1.15,2013-03-17 13:19:00,
2013-03-17 06:24:00,53.6,50.1,29.97,ESE,105,2.0,5.0,88,0.00,,,0.00,0,Wunderground v.1.15,2013-03-17 13:24:00,
2013-03-17 06:30:00,53.5,50.0,29.97,SSE,147,3.0,5.0,88,0.00,,,0.00,0,Wunderground v.1.15,2013-03-17 13:30:00,
2013-03-17 06:35:00,53.4,50.2,29.97,SE,128,2.0,3.0,89,0.00,,,0.00,0,Wunderground v.1.15,2013-03-17 13:35:00,
2013-03-17 06:40:00,53.5,50.3,29.97,SSE,167,1.0,3.0,89,0.00,,,0.00,0,Wunderground v.1.15,2013-03-17 13:40:00,
2013-03-17 06:46:00,53.5,50.0,29.98,SE,127,1.0,4.0,88,0.00,,,0.00,0,Wunderground v.1.15,2013-03-17 13:46:00,
2013-03-17 06:51:00,53.5,50.3,29.98,East,95,2.0,2.0,89,0.00,,,0.00,0,Wunderground v.1.15,2013-03-17 13:51:00,
2013-03-17 06:57:00,53.6,50.1,29.97,SE,126,1.0,2.0,88,0.00,,,0.00,0,Wunderground v.1.15,2013-03-17 13:57:00,
2013-03-17 07:02:00,53.5,50.0,29.98,SE,135,1.0,2.0,88,0.00,,,0.00,0,Wunderground v.1.15,2013-03-17 14:02:00,
2013-03-17 07:08:00,53.3,50.1,29.97,ESE,119,1.0,3.0,89,0.00,,,0.00,0,Wunderground v.1.15,2013-03-17 14:08:00,
2013-03-17 07:14:00,53.3,50.1,29.98,East,98,2.0,2.0,89,0.00,,,0.00,7,Wunderground v.1.15,2013-03-17 14:14:00,
2013-03-17 07:20:00,53.3,50.1,29.98,SE,130,1.0,2.0,89,0.00,,,0.00,9,Wunderground v.1.15,2013-03-17 14:20:00,
2013-03-17 07:25:00,53.2,50.0,29.98,East,99,1.0,1.0,89,0.00,,,0.00,11,Wunderground v.1.15,2013-03-17 14:25:00,
2013-03-17 07:30:00,53.2,50.0,29.98,ESE,117,1.0,1.0,89,0.00,,,0.00,14,Wunderground v.1.15,2013-03-17 14:30:00,
2013-03-17 07:35:00,53.1,49.9,29.98,SE,124,1.0,2.0,89,0.00,,,0.00,21,Wunderground v.1.15,2013-03-17 14:35:00,
2013-03-17 07:41:00,53.1,49.9,29.98,SE,126,1.0,1.0,89,0.00,,,0.00,23,Wunderground v.1.15,2013-03-17 14:41:00,
2013-03-17 07:47:00,53.3,50.1,29.98,SE,137,1.0,5.0,89,0.00,,,0.00,40,Wunderground v.1.15,2013-03-17 14:47:00,
2013-03-17 07:53:00,53.5,50.6,29.98,SSW,200,2.0,2.0,90,0.00,,,0.00,114,Wunderground v.1.15,2013-03-17 14:53:00,
2013-03-17 07:59:00,53.8,50.3,29.98,WNW,292,2.0,3.0,88,0.00,,,0.00,47,Wunderground v.1.15,2013-03-17 14:59:00,
2013-03-17 08:04:00,53.8,50.3,29.98,South,177,1.0,2.0,88,0.00,,,0.00,67,Wunderground v.1.15,2013-03-17 15:04:00,
2013-03-17 08:10:00,54.0,50.5,29.99,ENE,71,0.0,2.0,88,0.00,,,0.00,76,Wunderground v.1.15,2013-03-17 15:10:00,
2013-03-17 08:15:00,54.3,50.8,29.98,ENE,76,0.0,1.0,88,0.00,,,0.00,90,Wunderground v.1.15,2013-03-17 15:15:00,
2013-03-17 08:20:00,54.4,50.6,29.99,SE,124,1.0,3.0,87,0.00,,,0.00,63,Wunderground v.1.15,2013-03-17 15:20:00,
2013-03-17 08:26:00,54.3,50.5,29.99,SSE,149,2.0,5.0,87,0.00,,,0.00,107,Wunderground v.1.15,2013-03-17 15:26:00,
2013-03-17 08:32:00,54.5,50.7,29.99,South,184,2.0,2.0,87,0.00,,,0.00,109,Wunderground v.1.15,2013-03-17 15:32:00,
2013-03-17 08:37:00,54.7,50.9,29.99,SSW,199,1.0,3.0,87,0.00,,,0.00,141,Wunderground v.1.15,2013-03-17 15:37:00,
2013-03-17 08:42:00,54.9,50.8,29.99,South,190,1.0,4.0,86,0.00,,,0.00,135,Wunderground v.1.15,2013-03-17 15:42:00,
2013-03-17 08:48:00,55.2,50.8,29.99,SW,222,2.0,4.0,85,0.00,,,0.00,125,Wunderground v.1.15,2013-03-17 15:48:00,
2013-03-17 08:53:00,55.3,50.5,29.99,SW,232,2.0,4.0,84,0.00,,,0.00,141,Wunderground v.1.15,2013-03-17 15:53:00,
2013-03-17 08:59:00,55.3,50.5,29.99,SSE,167,2.0,4.0,84,0.00,,,0.00,155,Wunderground v.1.15,2013-03-17 15:59:00,
2013-03-17 09:04:00,55.5,50.7,29.99,South,189,1.0,2.0,84,0.00,,,0.00,156,Wunderground v.1.15,2013-03-17 16:04:00,
2013-03-17 09:09:00,55.8,50.7,29.99,SSE,153,0.0,2.0,83,0.00,,,0.00,176,Wunderground v.1.15,2013-03-17 16:09:00,
2013-03-17 09:15:00,55.8,50.7,30.00,SSE,165,0.0,1.0,83,0.00,,,0.00,199,Wunderground v.1.15,2013-03-17 16:15:00,
2013-03-17 09:20:00,56.1,51.0,29.99,WSW,243,0.0,1.0,83,0.00,,,0.00,204,Wunderground v.1.15,2013-03-17 16:20:00,
2013-03-17 09:26:00,56.2,50.8,29.99,SSE,163,0.0,1.0,82,0.00,,,0.00,179,Wunderground v.1.15,2013-03-17 16:26:00,
2013-03-17 09:32:00,56.3,50.9,29.99,WSW,246,1.0,1.0,82,0.00,,,0.00,213,Wunderground v.1.15,2013-03-17 16:32:00,
2013-03-17 09:38:00,57.1,51.3,29.99,ESE,119,1.0,2.0,81,0.00,,,0.00,497,Wunderground v.1.15,2013-03-17 16:38:00,
2013-03-17 09:43:00,57.2,51.1,30.00,SE,130,1.0,3.0,80,0.00,,,0.00,536,Wunderground v.1.15,2013-03-17 16:43:00,
2013-03-17 09:48:00,57.3,50.8,30.00,NNE,31,1.0,3.0,79,0.00,,,0.00,390,Wunderground v.1.15,2013-03-17 16:48:00,
2013-03-17 09:54:00,57.6,51.1,30.00,South,182,1.0,5.0,79,0.00,,,0.00,587,Wunderground v.1.15,2013-03-17 16:54:00,
2013-03-17 09:59:00,59.0,52.1,30.00,SW,217,2.0,7.0,78,0.00,,,0.00,587,Wunderground v.1.15,2013-03-17 16:59:00,
2013-03-17 10:05:00,59.3,51.7,30.00,SW,230,3.0,5.0,76,0.00,,,0.00,392,Wunderground v.1.15,2013-03-17 17:05:00,
2013-03-17 10:12:00,58.7,51.2,30.00,SSW,192,3.0,3.0,76,0.00,,,0.00,612,Wunderground v.1.15,2013-03-17 17:12:00,
2013-03-17 10:17:00,59.3,51.4,30.00,South,186,2.0,4.0,75,0.00,,,0.00,624,Wunderground v.1.15,2013-03-17 17:17:00,
2013-03-17 10:22:00,59.9,51.6,30.00,SE,139,2.0,2.0,74,0.00,,,0.00,643,Wunderground v.1.15,2013-03-17 17:22:00,
2013-03-17 10:27:00,60.7,52.0,30.00,SE,134,1.0,7.0,73,0.00,,,0.00,689,Wunderground v.1.15,2013-03-17 17:27:00,
2013-03-17 10:33:00,60.4,52.1,30.00,SE,134,2.0,4.0,74,0.00,,,0.00,601,Wunderground v.1.15,2013-03-17 17:33:00,
2013-03-17 10:38:00,61.0,51.9,30.00,ESE,121,2.0,4.0,72,0.00,,,0.00,566,Wunderground v.1.15,2013-03-17 17:38:00,
2013-03-17 10:44:00,60.6,51.5,30.01,SW,236,2.0,3.0,72,0.00,,,0.00,724,Wunderground v.1.15,2013-03-17 17:44:00,
2013-03-17 10:49:00,61.3,51.8,30.00,SSW,205,3.0,6.0,71,0.00,,,0.00,684,Wunderground v.1.15,2013-03-17 17:49:00,
2013-03-17 10:54:00,61.6,51.7,30.01,WNW,300,3.0,5.0,70,0.00,,,0.00,710,Wunderground v.1.15,2013-03-17 17:54:00,
2013-03-17 11:00:00,62.2,52.7,30.01,SW,218,2.0,5.0,71,0.00,,,0.00,705,Wunderground v.1.15,2013-03-17 18:00:00,
2013-03-17 11:05:00,62.6,51.9,30.01,NW,305,2.0,6.0,68,0.00,,,0.00,682,Wunderground v.1.15,2013-03-17 18:05:00,
2013-03-17 11:10:00,61.9,51.6,30.00,SSW,209,3.0,6.0,69,0.00,,,0.00,735,Wunderground v.1.15,2013-03-17 18:10:00,
2013-03-17 11:17:00,62.7,51.6,30.00,SSW,192,3.0,5.0,67,0.00,,,0.00,758,Wunderground v.1.15,2013-03-17 18:17:00,
2013-03-17 11:22:00,63.0,51.9,30.00,SSE,158,2.0,3.0,67,0.00,,,0.00,737,Wunderground v.1.15,2013-03-17 18:22:00,
2013-03-17 11:28:00,63.6,51.6,30.00,SW,225,2.0,7.0,65,0.00,,,0.00,749,Wunderground v.1.15,2013-03-17 18:28:00,
2013-03-17 11:33:00,63.0,51.0,30.00,SW,215,3.0,4.0,65,0.00,,,0.00,738,Wunderground v.1.15,2013-03-17 18:33:00,
2013-03-17 11:38:00,63.1,52.0,30.00,SSW,194,3.0,6.0,67,0.00,,,0.00,786,Wunderground v.1.15,2013-03-17 18:38:00,
2013-03-17 11:44:00,64.2,52.2,30.00,SSW,213,3.0,6.0,65,0.00,,,0.00,744,Wunderground v.1.15,2013-03-17 18:44:00,
2013-03-17 11:49:00,64.9,52.0,30.00,WNW,290,3.0,6.0,63,0.00,,,0.00,751,Wunderground v.1.15,2013-03-17 18:49:00,
2013-03-17 11:55:00,64.5,51.6,30.00,SE,145,3.0,5.0,63,0.00,,,0.00,715,Wunderground v.1.15,2013-03-17 18:55:00,
2013-03-17 12:01:00,65.1,52.2,30.00,South,186,2.0,5.0,63,0.00,,,0.00,719,Wunderground v.1.15,2013-03-17 19:01:00,
2013-03-17 12:06:00,64.9,51.6,30.00,WNW,296,3.0,6.0,62,0.00,,,0.00,512,Wunderground v.1.15,2013-03-17 19:06:00,
2013-03-17 12:12:00,64.9,52.0,30.00,WSW,245,4.0,4.0,63,0.00,,,0.00,814,Wunderground v.1.15,2013-03-17 19:12:00,
2013-03-17 12:18:00,65.6,51.8,30.00,SSE,165,3.0,4.0,61,0.00,,,0.00,744,Wunderground v.1.15,2013-03-17 19:18:00,
2013-03-17 12:23:00,66.1,51.8,30.00,SW,228,3.0,7.0,60,0.00,,,0.00,701,Wunderground v.1.15,2013-03-17 19:23:00,
2013-03-17 12:28:00,66.2,51.4,30.00,WSW,248,4.0,8.0,59,0.00,,,0.00,828,Wunderground v.1.15,2013-03-17 19:28:00,
2013-03-17 12:34:00,66.6,51.8,29.99,SW,220,3.0,7.0,59,0.00,,,0.00,821,Wunderground v.1.15,2013-03-17 19:34:00,
2013-03-17 12:39:00,67.1,51.8,29.99,WSW,240,3.0,7.0,58,0.00,,,0.00,824,Wunderground v.1.15,2013-03-17 19:39:00,
2013-03-17 12:45:00,67.0,51.7,29.99,SW,223,3.0,8.0,58,0.00,,,0.00,821,Wunderground v.1.15,2013-03-17 19:45:00,
2013-03-17 12:52:00,67.6,52.3,29.99,SSW,211,3.0,8.0,58,0.00,,,0.00,828,Wunderground v.1.15,2013-03-17 19:52:00,
2013-03-17 12:57:00,67.2,51.4,29.99,SW,221,3.0,8.0,57,0.00,,,0.00,807,Wunderground v.1.15,2013-03-17 19:57:00,
2013-03-17 13:03:00,67.7,50.9,29.98,West,265,4.0,6.0,55,0.00,,,0.00,788,Wunderground v.1.15,2013-03-17 20:03:00,
2013-03-17 13:09:00,67.1,50.4,29.98,NW,315,4.0,6.0,55,0.00,,,0.00,809,Wunderground v.1.15,2013-03-17 20:09:00,
2013-03-17 13:14:00,67.5,51.2,29.98,SW,222,4.0,7.0,56,0.00,,,0.00,817,Wunderground v.1.15,2013-03-17 20:14:00,
2013-03-17 13:20:00,67.6,50.4,29.98,West,271,4.0,7.0,54,0.00,,,0.00,809,Wunderground v.1.15,2013-03-17 20:20:00,
2013-03-17 13:25:00,68.0,50.7,29.97,SE,141,4.0,7.0,54,0.00,,,0.00,812,Wunderground v.1.15,2013-03-17 20:25:00,
2013-03-17 13:31:00,68.9,52.1,29.97,South,181,5.0,6.0,55,0.00,,,0.00,798,Wunderground v.1.15,2013-03-17 20:31:00,
2013-03-17 13:36:00,69.4,52.0,29.97,SW,232,5.0,6.0,54,0.00,,,0.00,807,Wunderground v.1.15,2013-03-17 20:36:00,
2013-03-17 13:42:00,69.0,52.2,29.97,SW,219,4.0,7.0,55,0.00,,,0.00,798,Wunderground v.1.15,2013-03-17 20:42:00,
2013-03-17 13:47:00,69.0,52.2,29.96,SSW,203,5.0,7.0,55,0.00,,,0.00,802,Wunderground v.1.15,2013-03-17 20:47:00,
2013-03-17 13:52:00,69.2,52.3,29.96,South,172,5.0,5.0,55,0.00,,,0.00,791,Wunderground v.1.15,2013-03-17 20:52:00,
2013-03-17 13:58:00,69.1,53.2,29.96,SW,221,4.0,6.0,57,0.00,,,0.00,788,Wunderground v.1.15,2013-03-17 20:58:00,
2013-03-17 14:04:00,68.8,52.5,29.95,SW,224,4.0,8.0,56,0.00,,,0.00,684,Wunderground v.1.15,2013-03-17 21:04:00,
2013-03-17 14:10:00,69.1,52.7,29.95,West,271,4.0,8.0,56,0.00,,,0.00,728,Wunderground v.1.15,2013-03-17 21:10:00,
2013-03-17 14:16:00,68.4,52.1,29.95,SW,215,4.0,8.0,56,0.00,,,0.00,803,Wunderground v.1.15,2013-03-17 21:16:00,
2013-03-17 14:21:00,68.6,52.8,29.94,SSW,200,4.0,6.0,57,0.00,,,0.00,789,Wunderground v.1.15,2013-03-17 21:21:00,
2013-03-17 14:27:00,69.6,52.7,29.94,WSW,255,5.0,7.0,55,0.00,,,0.00,773,Wunderground v.1.15,2013-03-17 21:27:00,
2013-03-17 14:33:00,69.8,52.9,29.94,SW,235,5.0,5.0,55,0.00,,,0.00,791,Wunderground v.1.15,2013-03-17 21:33:00,
2013-03-17 14:39:00,69.4,52.5,29.94,South,178,4.0,6.0,55,0.00,,,0.00,686,Wunderground v.1.15,2013-03-17 21:39:00,
2013-03-17 14:44:00,69.3,52.4,29.94,South,184,4.0,8.0,55,0.00,,,0.00,693,Wunderground v.1.15,2013-03-17 21:44:00,
2013-03-17 14:50:00,69.2,52.3,29.94,South,186,3.0,8.0,55,0.00,,,0.00,373,Wunderground v.1.15,2013-03-17 21:50:00,
2013-03-17 14:55:00,69.1,52.7,29.94,SW,217,4.0,9.0,56,0.00,,,0.00,413,Wunderground v.1.15,2013-03-17 21:55:00,
2013-03-17 15:00:00,68.3,52.0,29.94,WSW,257,5.0,10.0,56,0.00,,,0.00,392,Wunderground v.1.15,2013-03-17 22:00:00,
2013-03-17 15:05:00,68.3,52.5,29.94,West,273,6.0,8.0,57,0.00,,,0.00,411,Wunderground v.1.15,2013-03-17 22:05:00,
2013-03-17 15:11:00,68.3,52.0,29.93,SW,223,5.0,7.0,56,0.00,,,0.00,534,Wunderground v.1.15,2013-03-17 22:11:00,
2013-03-17 15:16:00,68.7,52.4,29.93,SW,221,5.0,7.0,56,0.00,,,0.00,441,Wunderground v.1.15,2013-03-17 22:16:00,
2013-03-17 15:22:00,69.1,52.7,29.93,NW,321,4.0,5.0,56,0.00,,,0.00,538,Wunderground v.1.15,2013-03-17 22:22:00,
2013-03-17 15:28:00,69.2,52.8,29.93,SW,226,5.0,8.0,56,0.00,,,0.00,577,Wunderground v.1.15,2013-03-17 22:28:00,
2013-03-17 15:33:00,68.9,52.6,29.93,WSW,252,5.0,6.0,56,0.00,,,0.00,566,Wunderground v.1.15,2013-03-17 22:33:00,
2013-03-17 15:38:00,69.1,52.7,29.93,SSW,205,4.0,6.0,56,0.00,,,0.00,693,Wunderground v.1.15,2013-03-17 22:38:00,
2013-03-17 15:43:00,69.2,52.8,29.93,South,181,5.0,11.0,56,0.00,,,0.00,636,Wunderground v.1.15,2013-03-17 22:43:00,
2013-03-17 15:48:00,69.2,52.8,29.93,WSW,238,4.0,11.0,56,0.00,,,0.00,624,Wunderground v.1.15,2013-03-17 22:48:00,
2013-03-17 15:54:00,69.7,53.3,29.93,WSW,243,3.0,5.0,56,0.00,,,0.00,594,Wunderground v.1.15,2013-03-17 22:54:00,
2013-03-17 15:59:00,69.9,53.0,29.93,SW,235,4.0,6.0,55,0.00,,,0.00,543,Wunderground v.1.15,2013-03-17 22:59:00,
2013-03-17 16:05:00,69.1,52.2,29.93,West,263,3.0,4.0,55,0.00,,,0.00,515,Wunderground v.1.15,2013-03-17 23:05:00,
2013-03-17 16:10:00,69.8,52.9,29.94,WNW,292,3.0,8.0,55,0.00,,,0.00,494,Wunderground v.1.15,2013-03-17 23:10:00,
2013-03-17 16:16:00,68.7,52.4,29.93,West,259,5.0,10.0,56,0.00,,,0.00,468,Wunderground v.1.15,2013-03-17 23:16:00,
2013-03-17 16:21:00,68.8,52.5,29.94,SSE,168,6.0,7.0,56,0.00,,,0.00,462,Wunderground v.1.15,2013-03-17 23:21:00,
2013-03-17 16:27:00,68.6,52.3,29.94,SW,223,5.0,7.0,56,0.00,,,0.00,441,Wunderground v.1.15,2013-03-17 23:27:00,
2013-03-17 16:32:00,68.7,52.4,29.94,SW,216,5.0,5.0,56,0.00,,,0.00,425,Wunderground v.1.15,2013-03-17 23:32:00,
2013-03-17 16:37:00,68.4,52.1,29.94,SW,215,4.0,5.0,56,0.00,,,0.00,408,Wunderground v.1.15,2013-03-17 23:37:00,
2013-03-17 16:43:00,68.6,52.3,29.94,SW,225,4.0,9.0,56,0.00,,,0.00,374,Wunderground v.1.15,2013-03-17 23:43:00,
2013-03-17 16:48:00,68.1,52.3,29.95,SW,216,4.0,9.0,57,0.00,,,0.00,367,Wunderground v.1.15,2013-03-17 23:48:00,
2013-03-17 16:53:00,67.7,52.4,29.94,SW,221,5.0,8.0,58,0.00,,,0.00,355,Wunderground v.1.15,2013-03-17 23:53:00,
2013-03-17 16:59:00,67.2,51.9,29.94,SW,225,7.0,10.0,58,0.00,,,0.00,316,Wunderground v.1.15,2013-03-17 23:59:00,
2013-03-17 17:05:00,66.6,52.3,29.94,SSW,209,7.0,9.0,60,0.00,,,0.00,318,Wunderground v.1.15,2013-03-18 00:05:00,
2013-03-17 17:10:00,66.5,52.2,29.94,West,262,6.0,9.0,60,0.00,,,0.00,297,Wunderground v.1.15,2013-03-18 00:10:00,
2013-03-17 17:16:00,66.1,52.3,29.94,SW,232,6.0,9.0,61,0.00,,,0.00,278,Wunderground v.1.15,2013-03-18 00:16:00,
2013-03-17 17:22:00,66.0,52.2,29.94,SW,223,5.0,5.0,61,0.00,,,0.00,253,Wunderground v.1.15,2013-03-18 00:22:00,
2013-03-17 17:27:00,66.1,52.3,29.94,SW,223,4.0,6.0,61,0.00,,,0.00,232,Wunderground v.1.15,2013-03-18 00:27:00,
2013-03-17 17:33:00,65.6,51.8,29.95,SW,223,5.0,10.0,61,0.00,,,0.00,211,Wunderground v.1.15,2013-03-18 00:33:00,
2013-03-17 17:38:00,65.5,52.1,29.94,WSW,240,5.0,10.0,62,0.00,,,0.00,192,Wunderground v.1.15,2013-03-18 00:38:00,
2013-03-17 17:43:00,65.0,51.7,29.94,WNW,283,3.0,10.0,62,0.00,,,0.00,174,Wunderground v.1.15,2013-03-18 00:43:00,
2013-03-17 17:48:00,64.9,52.0,29.94,SW,231,3.0,10.0,63,0.00,,,0.00,153,Wunderground v.1.15,2013-03-18 00:48:00,
2013-03-17 17:54:00,64.7,51.8,29.94,SW,227,4.0,6.0,63,0.00,,,0.00,134,Wunderground v.1.15,2013-03-18 00:54:00,
2013-03-17 17:59:00,64.3,51.9,29.94,SW,230,5.0,8.0,64,0.00,,,0.00,113,Wunderground v.1.15,2013-03-18 00:59:00,
2013-03-17 18:05:00,64.0,51.6,29.94,SW,215,4.0,5.0,64,0.00,,,0.00,91,Wunderground v.1.15,2013-03-18 01:05:00,
2013-03-17 18:10:00,64.0,51.6,29.95,SSW,209,4.0,5.0,64,0.00,,,0.00,81,Wunderground v.1.15,2013-03-18 01:10:00,
2013-03-17 18:15:00,63.7,51.7,29.95,SW,221,4.0,5.0,65,0.00,,,0.00,65,Wunderground v.1.15,2013-03-18 01:15:00,
2013-03-17 18:21:00,63.3,51.3,29.95,SW,221,4.0,5.0,65,0.00,,,0.00,47,Wunderground v.1.15,2013-03-18 01:21:00,
2013-03-17 18:26:00,62.9,51.4,29.95,SSE,163,4.0,5.0,66,0.00,,,0.00,37,Wunderground v.1.15,2013-03-18 01:26:00,
2013-03-17 18:32:00,62.7,51.2,29.95,WNW,296,2.0,2.0,66,0.00,,,0.00,30,Wunderground v.1.15,2013-03-18 01:32:00,
2013-03-17 18:37:00,62.3,51.2,29.95,SW,222,2.0,4.0,67,0.00,,,0.00,25,Wunderground v.1.15,2013-03-18 01:37:00,
2013-03-17 18:42:00,62.0,51.3,29.96,West,265,2.0,3.0,68,0.00,,,0.00,16,Wunderground v.1.15,2013-03-18 01:42:00,
2013-03-17 18:48:00,61.6,51.3,29.96,SW,220,1.0,8.0,69,0.00,,,0.00,9,Wunderground v.1.15,2013-03-18 01:48:00,
2013-03-17 18:53:00,61.4,51.5,29.96,SW,223,2.0,4.0,70,0.00,,,0.00,7,Wunderground v.1.15,2013-03-18 01:53:00,
2013-03-17 18:59:00,61.0,51.5,29.96,WSW,239,2.0,4.0,71,0.00,,,0.00,0,Wunderground v.1.15,2013-03-18 01:59:00,
2013-03-17 19:04:00,60.6,51.5,29.96,SW,220,3.0,3.0,72,0.00,,,0.00,0,Wunderground v.1.15,2013-03-18 02:04:00,
2013-03-17 19:09:00,60.6,51.9,29.96,SSW,194,2.0,3.0,73,0.00,,,0.00,0,Wunderground v.1.15,2013-03-18 02:09:00,
2013-03-17 19:14:00,60.3,51.6,29.96,WSW,253,2.0,4.0,73,0.00,,,0.00,0,Wunderground v.1.15,2013-03-18 02:14:00,
2013-03-17 19:20:00,60.1,51.8,29.96,SW,227,2.0,4.0,74,0.00,,,0.00,0,Wunderground v.1.15,2013-03-18 02:20:00,
2013-03-17 19:25:00,60.0,51.7,29.97,SSE,167,0.0,1.0,74,0.00,,,0.00,0,Wunderground v.1.15,2013-03-18 02:25:00,
2013-03-17 19:31:00,59.6,51.7,29.97,SW,215,1.0,1.0,75,0.00,,,0.00,0,Wunderground v.1.15,2013-03-18 02:31:00,
2013-03-17 19:36:00,59.4,51.5,29.97,SE,132,2.0,3.0,75,0.00,,,0.00,0,Wunderground v.1.15,2013-03-18 02:36:00,
2013-03-17 19:41:00,59.1,51.2,29.97,SSW,210,1.0,2.0,75,0.00,,,0.00,0,Wunderground v.1.15,2013-03-18 02:41:00,
2013-03-17 19:47:00,59.0,51.1,29.97,SSE,150,1.0,7.0,75,0.00,,,0.00,0,Wunderground v.1.15,2013-03-18 02:47:00,
2013-03-17 19:53:00,58.8,50.9,29.97,SSW,195,0.0,1.0,75,0.00,,,0.00,0,Wunderground v.1.15,2013-03-18 02:53:00,
2013-03-17 19:58:00,58.5,51.0,29.97,WSW,241,1.0,2.0,76,0.00,,,0.00,0,Wunderground v.1.15,2013-03-18 02:58:00,
2013-03-17 20:03:00,58.1,50.9,29.97,West,272,2.0,2.0,77,0.00,,,0.00,0,Wunderground v.1.15,2013-03-18 03:03:00,
2013-03-17 20:09:00,57.9,50.7,29.97,WSW,246,1.0,2.0,77,0.00,,,0.00,0,Wunderground v.1.15,2013-03-18 03:09:00,
2013-03-17 20:15:00,57.5,50.7,29.97,WSW,238,1.0,1.0,78,0.00,,,0.00,0,Wunderground v.1.15,2013-03-18 03:15:00,
2013-03-17 20:20:00,57.1,50.3,29.97,WSW,238,0.0,1.0,78,0.00,,,0.00,0,Wunderground v.1.15,2013-03-18 03:20:00,
2013-03-17 20:26:00,56.6,50.2,29.97,WSW,238,0.0,0.0,79,0.00,,,0.00,0,Wunderground v.1.15,2013-03-18 03:26:00,
2013-03-17 20:32:00,56.8,50.4,29.97,ESE,122,1.0,2.0,79,0.00,,,0.00,0,Wunderground v.1.15,2013-03-18 03:32:00,
2013-03-17 20:37:00,57.1,50.6,29.97,SE,125,1.0,2.0,79,0.00,,,0.00,0,Wunderground v.1.15,2013-03-18 03:37:00,
2013-03-17 20:42:00,56.7,50.3,29.97,ESE,123,0.0,2.0,79,0.00,,,0.00,0,Wunderground v.1.15,2013-03-18 03:42:00,
2013-03-17 20:48:00,56.5,50.1,29.98,ESE,123,0.0,2.0,79,0.00,,,0.00,0,Wunderground v.1.15,2013-03-18 03:48:00,
2013-03-17 20:53:00,55.8,50.1,29.98,SE,124,0.0,0.0,81,0.00,,,0.00,0,Wunderground v.1.15,2013-03-18 03:53:00,
2013-03-17 20:58:00,55.7,50.6,29.98,SSW,197,0.0,1.0,83,0.00,,,0.00,0,Wunderground v.1.15,2013-03-18 03:58:00,
2013-03-17 21:00:00,55.5,50.1,29.98,SSW,197,0.0,1.0,82,0.00,,,0.00,0,Wunderground v.1.15,2013-03-18 04:00:00,
2013-03-17 21:01:00,55.6,50.2,29.98,SSW,197,0.0,0.0,82,0.00,,,0.00,0,Wunderground v.1.15,2013-03-18 04:01:00,
2013-03-17 21:05:00,55.3,49.9,29.98,SSW,197,0.0,1.0,82,0.00,,,0.00,0,Wunderground v.1.15,2013-03-18 04:05:00,
2013-03-17 21:10:00,54.7,49.3,29.98,SSE,164,0.0,1.0,82,0.00,,,0.00,0,Wunderground v.1.15,2013-03-18 04:10:00,
2013-03-17 21:12:00,54.4,49.3,29.98,South,180,0.0,2.0,83,0.00,,,0.00,0,Wunderground v.1.15,2013-03-18 04:12:00,
2013-03-17 21:18:00,54.3,49.2,29.98,South,178,0.0,2.0,83,0.00,,,0.00,0,Wunderground v.1.15,2013-03-18 04:18:00,
2013-03-17 21:23:00,53.5,48.8,29.99,South,178,0.0,0.0,84,0.00,,,0.00,0,Wunderground v.1.15,2013-03-18 04:23:00,
2013-03-17 21:28:00,53.8,49.1,29.99,South,178,0.0,0.0,84,0.00,,,0.00,0,Wunderground v.1.15,2013-03-18 04:28:00,
2013-03-17 21:34:00,53.6,48.9,29.99,SSE,165,0.0,0.0,84,0.00,,,0.00,0,Wunderground v.1.15,2013-03-18 04:34:00,
2013-03-17 21:40:00,52.8,48.1,29.99,SE,129,1.0,2.0,84,0.00,,,0.00,0,Wunderground v.1.15,2013-03-18 04:40:00,
2013-03-17 21:45:00,52.8,48.4,29.99,SE,128,1.0,1.0,85,0.00,,,0.00,0,Wunderground v.1.15,2013-03-18 04:45:00,
2013-03-17 21:50:00,53.1,48.7,29.99,SE,128,1.0,2.0,85,0.00,,,0.00,0,Wunderground v.1.15,2013-03-18 04:50:00,
2013-03-17 21:56:00,53.9,49.8,29.99,West,273,0.0,3.0,86,0.00,,,0.00,0,Wunderground v.1.15,2013-03-18 04:56:00,
2013-03-17 22:01:00,54.9,51.1,29.99,SW,236,1.0,1.0,87,0.00,,,0.00,0,Wunderground v.1.15,2013-03-18 05:01:00,
2013-03-17 22:07:00,55.5,51.1,30.00,WSW,240,1.0,2.0,85,0.00,,,0.00,0,Wunderground v.1.15,2013-03-18 05:07:00,
2013-03-17 22:12:00,55.6,51.2,30.00,WSW,250,1.0,2.0,85,0.00,,,0.00,0,Wunderground v.1.15,2013-03-18 05:12:00,
2013-03-17 22:17:00,55.7,51.3,30.00,NW,304,2.0,5.0,85,0.00,,,0.00,0,Wunderground v.1.15,2013-03-18 05:17:00,
2013-03-17 22:23:00,55.6,51.2,30.00,West,281,2.0,3.0,85,0.00,,,0.00,0,Wunderground v.1.15,2013-03-18 05:23:00,
2013-03-17 22:29:00,55.6,51.5,30.00,ENE,78,2.0,4.0,86,0.00,,,0.00,0,Wunderground v.1.15,2013-03-18 05:29:00,
2013-03-17 22:35:00,55.8,51.4,30.00,SW,229,1.0,2.0,85,0.00,,,0.00,0,Wunderground v.1.15,2013-03-18 05:35:00,
2013-03-17 22:41:00,55.6,51.2,30.00,SW,232,2.0,2.0,85,0.00,,,0.00,0,Wunderground v.1.15,2013-03-18 05:41:00,
2013-03-17 22:47:00,55.5,51.1,30.00,WNW,286,2.0,3.0,85,0.00,,,0.00,0,Wunderground v.1.15,2013-03-18 05:47:00,
2013-03-17 22:53:00,55.5,51.4,30.00,SSW,206,2.0,3.0,86,0.00,,,0.00,0,Wunderground v.1.15,2013-03-18 05:53:00,
2013-03-17 22:58:00,55.5,51.4,30.00,WSW,243,3.0,5.0,86,0.00,,,0.00,0,Wunderground v.1.15,2013-03-18 05:58:00,
2013-03-17 23:04:00,55.6,51.5,30.00,SSW,207,2.0,2.0,86,0.00,,,0.00,0,Wunderground v.1.15,2013-03-18 06:04:00,
2013-03-17 23:09:00,55.7,51.6,30.00,ESE,122,1.0,3.0,86,0.00,,,0.00,0,Wunderground v.1.15,2013-03-18 06:09:00,
2013-03-17 23:14:00,55.8,51.4,30.00,ESE,119,1.0,3.0,85,0.00,,,0.00,0,Wunderground v.1.15,2013-03-18 06:14:00,
2013-03-17 23:20:00,55.9,51.8,30.00,ESE,111,1.0,3.0,86,0.00,,,0.00,0,Wunderground v.1.15,2013-03-18 06:20:00,
2013-03-17 23:25:00,55.9,51.5,30.00,ESE,103,0.0,1.0,85,0.00,,,0.00,0,Wunderground v.1.15,2013-03-18 06:25:00,
2013-03-17 23:30:00,56.1,51.7,30.00,SSE,162,0.0,2.0,85,0.00,,,0.00,0,Wunderground v.1.15,2013-03-18 06:30:00,
2013-03-17 23:36:00,56.0,51.6,30.00,SE,140,1.0,3.0,85,0.00,,,0.00,0,Wunderground v.1.15,2013-03-18 06:36:00,
2013-03-17 23:41:00,55.9,51.5,30.01,SE,139,2.0,2.0,85,0.00,,,0.00,0,Wunderground v.1.15,2013-03-18 06:41:00,
2013-03-17 23:46:00,55.9,51.5,30.00,ESE,112,2.0,5.0,85,0.00,,,0.00,0,Wunderground v.1.15,2013-03-18 06:46:00,
2013-03-17 23:52:00,55.8,51.4,30.00,SE,126,2.0,3.0,85,0.00,,,0.00,0,Wunderground v.1.15,2013-03-18 06:52:00,
2013-03-17 23:57:00,55.7,51.3,30.01,SE,126,2.0,3.0,85,0.00,,,0.00,0,Wunderground v.1.15,2013-03-18 06:57:00,